Time;durP1;ratioP1;P1;durP2;ratioP2;P2;SDS_P1;SDS_P2;PMS_P1;PMS_P2;Temp;Humidity;BMP_temperature;BMP_pressure;BME280_temperature;BME280_humidity;BME280_pressure;Samples;Min_cycle;Max_cycle;Signal;HPM_P1;HPM_P2
2022/10/22 00:00:17;;;;;;;;;;;20.80;86.50;;;;;;5119226;27;19912;-79
2022/10/22 00:02:43;;;;;;;;;;;20.80;86.40;;;;;;5113983;27;19919;-79
2022/10/22 00:05:10;;;;;;;;;;;20.90;86.40;;;;;;5125671;27;20006;-78
2022/10/22 00:07:37;;;;;;;;;;;20.90;86.40;;;;;;5134665;27;19915;-78
2022/10/22 00:10:04;;;;;;;;;;;20.90;86.30;;;;;;5134626;27;19912;-78
2022/10/22 00:12:31;;;;;;;;;;;20.90;86.30;;;;;;5121990;27;19916;-79
2022/10/22 00:14:57;;;;;;;;;;;21.00;85.90;;;;;;5132796;27;19907;-79
2022/10/22 00:17:24;;;;;;;;;;;21.00;86.10;;;;;;5134369;27;20309;-78
2022/10/22 00:19:51;;;;;;;;;;;21.00;86.40;;;;;;5133731;27;20365;-78
2022/10/22 00:22:17;;;;;;;;;;;21.00;86.20;;;;;;5134476;27;19908;-78
2022/10/22 00:24:44;;;;;;;;;;;21.10;86.50;;;;;;5118563;27;19919;-78
2022/10/22 00:27:11;;;;;;;;;;;21.20;87.00;;;;;;5134123;27;19912;-77
2022/10/22 00:29:37;;;;;;;;;;;21.30;87.30;;;;;;5134286;27;19908;-78
2022/10/22 00:32:04;;;;;;;;;;;21.40;86.50;;;;;;5133950;27;19911;-78
2022/10/22 00:34:31;;;;;;;;;;;21.50;86.60;;;;;;5134110;27;19973;-78
2022/10/22 00:36:58;;;;;;;;;;;21.60;86.70;;;;;;5119216;27;20327;-78
2022/10/22 00:39:25;;;;;;;;;;;21.60;86.50;;;;;;5134010;27;20377;-78
2022/10/22 00:41:52;;;;;;;;;;;21.70;86.30;;;;;;5134142;27;19921;-78
2022/10/22 00:44:36;;;;;;;;;;;21.80;86.10;;;;;;5134341;27;19907;-78
2022/10/22 00:47:03;;;;;;;;;;;21.80;85.60;;;;;;5133071;27;19907;-77
2022/10/22 00:49:30;;;;;;;;;;;21.90;85.50;;;;;;5103781;27;19911;-78
2022/10/22 00:51:56;;;;;;;;;;;21.90;85.00;;;;;;5115233;27;19911;-76
2022/10/22 00:54:23;;;;;;;;;;;22.00;84.60;;;;;;5097620;28;20072;-76
2022/10/22 00:56:50;;;;;;;;;;;22.10;84.90;;;;;;5125224;27;19911;-77
2022/10/22 00:59:16;;;;;;;;;;;22.10;84.00;;;;;;5095396;27;19924;-77
2022/10/22 01:01:44;;;;;;;;;;;22.20;83.60;;;;;;5090591;28;19912;-77
2022/10/22 01:04:10;;;;;;;;;;;22.30;83.90;;;;;;5090633;28;19967;-77
2022/10/22 01:06:37;;;;;;;;;;;22.30;83.30;;;;;;5092582;28;19912;-77
2022/10/22 01:09:27;;;;;;;;;;;22.30;82.90;;;;;;5092119;28;20339;-77
2022/10/22 01:12:00;;;;;;;;;;;22.30;83.40;;;;;;5059979;28;20285;-79
2022/10/22 01:14:32;;;;;;;;;;;22.40;82.60;;;;;;5097322;28;20265;-78
2022/10/22 01:17:09;;;;;;;;;;;22.40;83.00;;;;;;5092848;28;19950;-78
2022/10/22 01:19:42;;;;;;;;;;;22.40;82.70;;;;;;5074435;28;19915;-79
2022/10/22 01:22:14;;;;;;;;;;;22.40;82.90;;;;;;5092543;28;20022;-79
2022/10/22 01:24:50;;;;;;;;;;;22.50;83.10;;;;;;5074598;28;19973;-78
2022/10/22 01:27:26;;;;;;;;;;;22.50;82.70;;;;;;5074728;28;19908;-78
2022/10/22 01:30:02;;;;;;;;;;;22.50;82.30;;;;;;5098949;28;19954;-75
2022/10/22 01:32:30;;;;;;;;;;;22.70;82.90;;;;;;5074318;28;19912;-78
2022/10/22 01:34:59;;;;;;;;;;;22.70;81.90;;;;;;5074552;28;19915;-77
2022/10/22 01:37:27;;;;;;;;;;;22.70;82.40;;;;;;5085792;28;19912;-78
2022/10/22 01:39:55;;;;;;;;;;;22.70;82.20;;;;;;5074045;28;20388;-77
2022/10/22 01:42:21;;;;;;;;;;;22.60;81.80;;;;;;5092292;28;19908;-78
2022/10/22 01:44:49;;;;;;;;;;;22.60;82.70;;;;;;5057609;28;19908;-78
2022/10/22 01:47:17;;;;;;;;;;;22.50;82.30;;;;;;5095612;28;19912;-78
2022/10/22 01:49:50;;;;;;;;;;;22.50;82.80;;;;;;5082658;28;19916;-79
2022/10/22 01:52:26;;;;;;;;;;;22.50;82.60;;;;;;5092079;28;20362;-79
2022/10/22 01:55:06;;;;;;;;;;;22.40;82.70;;;;;;5074280;28;20427;-74
2022/10/22 01:57:36;;;;;;;;;;;22.40;83.20;;;;;;5110917;28;19920;-74
2022/10/22 02:00:12;;;;;;;;;;;22.30;83.00;;;;;;5107589;28;20377;-79
2022/10/22 02:02:57;;;;;;;;;;;22.30;83.60;;;;;;5132984;28;19951;-75
2022/10/22 02:05:32;;;;;;;;;;;22.30;83.70;;;;;;5133164;28;19908;-74
2022/10/22 02:08:18;;;;;;;;;;;22.30;83.80;;;;;;5114663;28;19934;-73
2022/10/22 02:10:45;;;;;;;;;;;22.30;83.40;;;;;;5131557;28;19908;-75
2022/10/22 02:13:13;;;;;;;;;;;22.30;83.90;;;;;;5113098;28;19969;-76
2022/10/22 02:15:40;;;;;;;;;;;22.40;83.70;;;;;;5132903;28;20361;-75
2022/10/22 02:18:07;;;;;;;;;;;22.30;83.80;;;;;;5114320;28;19915;-75
2022/10/22 02:20:34;;;;;;;;;;;22.40;83.70;;;;;;5114383;28;19915;-72
2022/10/22 02:23:01;;;;;;;;;;;22.30;83.30;;;;;;5097589;28;19916;-75
2022/10/22 02:25:29;;;;;;;;;;;22.30;83.50;;;;;;5097635;28;19915;-75
2022/10/22 02:27:58;;;;;;;;;;;22.30;83.90;;;;;;5098522;28;19919;-73
2022/10/22 02:30:25;;;;;;;;;;;22.30;84.00;;;;;;5086132;28;19916;-74
2022/10/22 02:33:01;;;;;;;;;;;22.20;83.80;;;;;;5130034;28;19915;-74
2022/10/22 02:35:28;;;;;;;;;;;22.20;83.80;;;;;;5124894;28;19915;-74
2022/10/22 02:37:54;;;;;;;;;;;22.20;83.90;;;;;;5111397;28;19915;-75
2022/10/22 02:40:21;;;;;;;;;;;22.30;84.30;;;;;;5111535;28;19908;-78
2022/10/22 02:42:48;;;;;;;;;;;22.30;85.20;;;;;;5119385;28;19928;-76
2022/10/22 02:45:15;;;;;;;;;;;22.30;85.70;;;;;;5112896;28;19912;-75
2022/10/22 02:47:42;;;;;;;;;;;22.20;84.30;;;;;;5090580;28;19973;-76
2022/10/22 02:50:09;;;;;;;;;;;22.20;84.90;;;;;;5115577;27;19998;-77
2022/10/22 02:52:35;;;;;;;;;;;22.30;84.30;;;;;;5114987;27;19950;-77
2022/10/22 02:55:02;;;;;;;;;;;22.30;84.50;;;;;;5116751;27;19914;-77
2022/10/22 02:57:29;;;;;;;;;;;22.30;83.40;;;;;;5128286;27;20380;-76
2022/10/22 02:59:55;;;;;;;;;;;22.30;83.40;;;;;;5112284;27;20018;-77
2022/10/22 03:02:22;;;;;;;;;;;22.30;83.00;;;;;;5082766;28;20374;-75
2022/10/22 03:04:49;;;;;;;;;;;22.30;83.50;;;;;;5096044;28;20344;-76
2022/10/22 03:07:15;;;;;;;;;;;22.30;82.60;;;;;;5114091;27;20335;-77
2022/10/22 03:09:42;;;;;;;;;;;22.30;82.60;;;;;;5116900;27;19918;-79
2022/10/22 03:12:08;;;;;;;;;;;22.30;82.80;;;;;;5096049;28;19916;-79
2022/10/22 03:14:35;;;;;;;;;;;22.30;83.10;;;;;;5117013;27;19946;-79
2022/10/22 03:17:02;;;;;;;;;;;22.30;82.90;;;;;;5115970;27;20333;-78
2022/10/22 03:19:29;;;;;;;;;;;22.30;83.30;;;;;;5114866;27;19915;-77
2022/10/22 03:22:05;;;;;;;;;;;22.30;83.70;;;;;;5114737;27;20374;-76
2022/10/22 03:24:41;;;;;;;;;;;22.30;83.30;;;;;;5095857;27;20246;-76
2022/10/22 03:27:08;;;;;;;;;;;22.20;83.20;;;;;;5093212;28;19911;-77
2022/10/22 03:29:35;;;;;;;;;;;22.20;83.70;;;;;;5106167;27;19919;-74
2022/10/22 03:32:02;;;;;;;;;;;22.30;83.70;;;;;;5088334;28;19913;-75
2022/10/22 03:34:29;;;;;;;;;;;22.20;83.50;;;;;;5106115;27;19963;-77
2022/10/22 03:36:56;;;;;;;;;;;22.20;83.30;;;;;;5112805;27;20397;-76
2022/10/22 03:39:22;;;;;;;;;;;22.20;83.60;;;;;;5129134;27;19960;-77
2022/10/22 03:41:49;;;;;;;;;;;22.10;83.40;;;;;;5126198;27;19919;-76
2022/10/22 03:44:16;;;;;;;;;;;22.10;83.50;;;;;;5113343;27;20372;-77
2022/10/22 03:46:43;;;;;;;;;;;22.10;83.70;;;;;;5117873;27;20449;-77
2022/10/22 03:49:09;;;;;;;;;;;22.10;83.50;;;;;;5100757;27;19927;-76
2022/10/22 03:51:36;;;;;;;;;;;22.00;83.80;;;;;;5112168;27;20250;-78
2022/10/22 03:54:03;;;;;;;;;;;22.00;83.30;;;;;;5114029;27;19908;-79
2022/10/22 03:56:29;;;;;;;;;;;21.90;83.60;;;;;;5095066;28;19908;-80
2022/10/22 03:58:56;;;;;;;;;;;21.90;84.10;;;;;;5092621;28;19976;-79
2022/10/22 04:01:23;;;;;;;;;;;21.80;84.50;;;;;;5107635;27;19911;-81
2022/10/22 04:03:50;;;;;;;;;;;21.80;84.30;;;;;;5111481;28;19907;-79
2022/10/22 04:06:16;;;;;;;;;;;21.80;84.40;;;;;;5111351;28;19919;-79
2022/10/22 04:08:43;;;;;;;;;;;21.80;84.50;;;;;;5081506;28;20357;-79
2022/10/22 04:11:10;;;;;;;;;;;21.90;85.00;;;;;;5106677;28;19926;-78
2022/10/22 04:13:37;;;;;;;;;;;21.80;84.60;;;;;;5111048;28;20412;-77
2022/10/22 04:16:31;;;;;;;;;;;21.80;84.20;;;;;;5109450;28;19995;-77
2022/10/22 04:18:58;;;;;;;;;;;21.80;84.40;;;;;;5102986;28;20008;-78
2022/10/22 04:21:24;;;;;;;;;;;21.70;84.40;;;;;;5107180;28;19908;-77
2022/10/22 04:23:51;;;;;;;;;;;21.70;84.40;;;;;;5111210;28;20461;-76
2022/10/22 04:26:18;;;;;;;;;;;21.70;84.30;;;;;;5110471;28;20006;-78
2022/10/22 04:28:45;;;;;;;;;;;21.70;84.70;;;;;;5110424;28;19935;-77
2022/10/22 04:31:13;;;;;;;;;;;21.70;84.20;;;;;;5110273;28;20373;-76
2022/10/22 04:33:40;;;;;;;;;;;21.70;84.40;;;;;;5110703;28;19908;-76
2022/10/22 04:36:10;;;;;;;;;;;21.70;84.20;;;;;;5110161;28;19916;-78
2022/10/22 04:38:37;;;;;;;;;;;21.70;84.20;;;;;;5093016;28;20325;-76
2022/10/22 04:41:25;;;;;;;;;;;21.70;84.40;;;;;;5111040;28;19951;-76
2022/10/22 04:43:52;;;;;;;;;;;21.70;84.60;;;;;;5110875;28;19919;-77
2022/10/22 04:46:19;;;;;;;;;;;21.70;84.70;;;;;;5110871;28;20014;-79
2022/10/22 04:48:46;;;;;;;;;;;21.70;84.50;;;;;;5108741;28;19927;-78
2022/10/22 04:51:14;;;;;;;;;;;21.70;84.30;;;;;;5106031;28;20659;-76
2022/10/22 04:53:41;;;;;;;;;;;21.70;84.40;;;;;;5104099;28;19916;-75
2022/10/22 04:56:08;;;;;;;;;;;21.70;84.50;;;;;;5114509;27;19912;-76
2022/10/22 04:58:34;;;;;;;;;;;21.70;84.60;;;;;;5130907;27;19930;-77
2022/10/22 05:01:08;;;;;;;;;;;21.70;84.20;;;;;;5116434;27;19958;-75
2022/10/22 05:03:34;;;;;;;;;;;21.70;84.30;;;;;;5131240;27;20281;-77
2022/10/22 05:06:01;;;;;;;;;;;21.70;84.20;;;;;;5131108;27;19908;-77
2022/10/22 05:08:28;;;;;;;;;;;21.70;84.20;;;;;;5131346;27;19919;-75
2022/10/22 05:10:54;;;;;;;;;;;21.70;84.80;;;;;;5115385;27;19969;-78
2022/10/22 05:13:21;;;;;;;;;;;21.70;84.60;;;;;;5111656;27;20312;-78
2022/10/22 05:15:47;;;;;;;;;;;21.70;84.70;;;;;;5129507;27;19908;-79
2022/10/22 05:18:14;;;;;;;;;;;21.70;84.50;;;;;;5130629;27;19937;-79
2022/10/22 05:20:41;;;;;;;;;;;21.70;84.70;;;;;;5107693;27;20368;-77
2022/10/22 05:23:08;;;;;;;;;;;21.70;84.70;;;;;;5093893;28;19908;-77
2022/10/22 05:25:38;;;;;;;;;;;21.70;84.80;;;;;;5112276;27;20578;-78
2022/10/22 05:28:04;;;;;;;;;;;21.70;84.80;;;;;;5115145;27;19922;-76
2022/10/22 05:30:31;;;;;;;;;;;21.70;84.80;;;;;;5112520;28;19916;-75
2022/10/22 05:32:58;;;;;;;;;;;21.80;84.40;;;;;;5113801;27;19912;-77
2022/10/22 05:35:24;;;;;;;;;;;21.80;84.50;;;;;;5104566;28;19912;-76
2022/10/22 05:37:51;;;;;;;;;;;21.80;84.20;;;;;;5110044;28;19915;-79
2022/10/22 05:40:17;;;;;;;;;;;21.80;84.70;;;;;;5109935;28;19963;-76
2022/10/22 05:42:44;;;;;;;;;;;21.70;84.40;;;;;;5109887;28;19916;-76
2022/10/22 05:45:11;;;;;;;;;;;21.70;84.30;;;;;;5091009;28;19966;-76
2022/10/22 05:47:37;;;;;;;;;;;21.70;84.60;;;;;;5108726;28;19923;-76
2022/10/22 05:50:04;;;;;;;;;;;21.70;84.40;;;;;;5109701;28;19923;-75
2022/10/22 05:52:31;;;;;;;;;;;21.60;84.70;;;;;;5109865;28;19907;-77
2022/10/22 05:54:57;;;;;;;;;;;21.60;84.80;;;;;;5109204;28;20006;-76
2022/10/22 05:57:24;;;;;;;;;;;21.60;85.00;;;;;;5088684;28;20392;-81
2022/10/22 05:59:51;;;;;;;;;;;21.50;84.50;;;;;;5129985;28;19958;-76
2022/10/22 06:02:17;;;;;;;;;;;21.50;84.80;;;;;;5130247;28;19911;-78
2022/10/22 06:04:44;;;;;;;;;;;21.50;84.90;;;;;;5130398;28;20262;-78
2022/10/22 06:07:10;;;;;;;;;;;21.50;84.90;;;;;;5130633;28;19920;-78
2022/10/22 06:09:37;;;;;;;;;;;21.50;84.70;;;;;;5110124;28;19919;-75
2022/10/22 06:12:07;;;;;;;;;;;21.50;85.00;;;;;;5107161;28;19945;-76
2022/10/22 06:14:34;;;;;;;;;;;21.50;84.90;;;;;;5128620;28;19911;-77
2022/10/22 06:17:01;;;;;;;;;;;21.50;85.10;;;;;;5130411;28;19908;-78
2022/10/22 06:19:30;;;;;;;;;;;21.50;84.90;;;;;;5119795;28;19919;-79
2022/10/22 06:21:56;;;;;;;;;;;21.50;85.10;;;;;;5104005;28;19911;-76
2022/10/22 06:24:23;;;;;;;;;;;21.50;84.90;;;;;;5134776;27;19911;-76
2022/10/22 06:26:50;;;;;;;;;;;21.60;85.00;;;;;;5134009;27;20016;-76
2022/10/22 06:29:17;;;;;;;;;;;21.50;84.60;;;;;;5121199;27;19920;-77
2022/10/22 06:31:43;;;;;;;;;;;21.50;84.40;;;;;;5133644;27;19912;-77
2022/10/22 06:34:11;;;;;;;;;;;21.50;84.70;;;;;;5131096;27;19927;-80
2022/10/22 06:36:39;;;;;;;;;;;21.50;84.70;;;;;;5115838;27;20010;-79
2022/10/22 06:39:06;;;;;;;;;;;21.50;84.60;;;;;;5129281;27;19918;-78
2022/10/22 06:41:32;;;;;;;;;;;21.50;84.60;;;;;;5133487;27;20430;-80
2022/10/22 06:43:59;;;;;;;;;;;21.50;84.70;;;;;;5133561;27;19911;-80
2022/10/22 06:46:26;;;;;;;;;;;21.50;84.50;;;;;;5126772;27;19915;-80
2022/10/22 06:48:56;;;;;;;;;;;21.50;84.60;;;;;;5120599;27;19981;-80
2022/10/22 06:51:23;;;;;;;;;;;21.50;84.50;;;;;;5133744;27;19918;-80
2022/10/22 06:53:50;;;;;;;;;;;21.50;84.30;;;;;;5133461;27;19911;-76
2022/10/22 06:56:17;;;;;;;;;;;21.50;84.40;;;;;;5100462;27;19922;-79
2022/10/22 06:58:46;;;;;;;;;;;21.40;84.40;;;;;;5133296;27;20308;-80
2022/10/22 07:01:13;;;;;;;;;;;21.40;84.50;;;;;;5123331;27;19920;-80
2022/10/22 07:03:40;;;;;;;;;;;21.40;84.50;;;;;;5133245;27;19953;-80
2022/10/22 07:06:07;;;;;;;;;;;21.40;84.60;;;;;;5113213;27;20352;-82
2022/10/22 07:08:34;;;;;;;;;;;21.40;84.60;;;;;;5092755;28;20239;-80
2022/10/22 07:11:07;;;;;;;;;;;21.40;84.80;;;;;;5113810;27;20004;-78
2022/10/22 07:13:34;;;;;;;;;;;21.40;84.50;;;;;;5113356;27;19965;-78
2022/10/22 07:16:01;;;;;;;;;;;21.30;84.50;;;;;;5112213;27;19923;-79
2022/10/22 07:18:27;;;;;;;;;;;21.30;84.80;;;;;;5077301;28;19912;-77
2022/10/22 07:20:54;;;;;;;;;;;21.30;84.80;;;;;;5111382;27;20481;-77
2022/10/22 07:23:21;;;;;;;;;;;21.30;84.80;;;;;;5113814;27;19946;-81
2022/10/22 07:25:47;;;;;;;;;;;21.30;84.80;;;;;;5112489;28;19967;-78
2022/10/22 07:28:14;;;;;;;;;;;21.30;85.00;;;;;;5112220;28;19920;-78
2022/10/22 07:30:40;;;;;;;;;;;21.30;84.90;;;;;;5112219;28;20309;-76
2022/10/22 07:33:07;;;;;;;;;;;21.30;85.00;;;;;;5111502;28;20010;-77
2022/10/22 07:35:34;;;;;;;;;;;21.30;85.00;;;;;;5111603;28;19915;-77
2022/10/22 07:38:00;;;;;;;;;;;21.30;85.30;;;;;;5094266;28;19916;-78
2022/10/22 07:40:27;;;;;;;;;;;21.20;85.30;;;;;;5111992;28;19922;-81
2022/10/22 07:42:53;;;;;;;;;;;21.20;85.30;;;;;;5093745;28;19946;-78
2022/10/22 07:45:20;;;;;;;;;;;21.20;85.20;;;;;;5100783;28;19916;-78
2022/10/22 07:47:47;;;;;;;;;;;21.20;85.50;;;;;;5111951;28;19989;-76
2022/10/22 07:50:14;;;;;;;;;;;21.20;85.40;;;;;;5111498;28;19916;-79
2022/10/22 07:52:40;;;;;;;;;;;21.10;85.20;;;;;;5092372;28;19923;-79
2022/10/22 07:55:07;;;;;;;;;;;21.10;85.30;;;;;;5111128;28;19920;-81
2022/10/22 07:57:36;;;;;;;;;;;21.10;85.60;;;;;;5095150;27;19930;-78
2022/10/22 08:00:06;;;;;;;;;;;21.10;85.70;;;;;;5113874;27;20253;-80
2022/10/22 08:02:32;;;;;;;;;;;21.10;85.70;;;;;;5132330;27;19972;-78
2022/10/22 08:04:59;;;;;;;;;;;21.00;85.70;;;;;;5100599;27;19916;-78
2022/10/22 08:07:26;;;;;;;;;;;21.00;85.70;;;;;;5124599;27;19912;-76
2022/10/22 08:09:52;;;;;;;;;;;20.90;86.00;;;;;;5131691;27;19911;-76
2022/10/22 08:12:19;;;;;;;;;;;20.90;86.10;;;;;;5111866;27;19919;-76
2022/10/22 08:14:46;;;;;;;;;;;20.80;86.10;;;;;;5108158;27;19919;-80
2022/10/22 08:17:12;;;;;;;;;;;20.80;86.20;;;;;;5131755;27;19911;-80
2022/10/22 08:19:39;;;;;;;;;;;20.80;86.20;;;;;;5121496;27;19930;-80
2022/10/22 08:22:05;;;;;;;;;;;20.80;86.40;;;;;;5113539;27;19955;-79
2022/10/22 08:24:32;;;;;;;;;;;20.80;86.40;;;;;;5125771;27;20033;-80
2022/10/22 08:26:59;;;;;;;;;;;20.80;86.50;;;;;;5131795;27;19911;-80
2022/10/22 08:29:25;;;;;;;;;;;20.80;86.50;;;;;;5131984;27;20369;-79
2022/10/22 08:31:52;;;;;;;;;;;20.80;86.50;;;;;;5113477;27;20002;-77
2022/10/22 08:34:19;;;;;;;;;;;20.80;86.60;;;;;;5101499;27;20426;-78
2022/10/22 08:36:45;;;;;;;;;;;20.80;86.80;;;;;;5127559;27;19918;-81
2022/10/22 08:39:12;;;;;;;;;;;20.80;87.00;;;;;;5131532;27;19954;-85
2022/10/22 08:41:42;;;;;;;;;;;20.80;86.90;;;;;;5113327;27;19918;-82
2022/10/22 08:44:27;;;;;;;;;;;20.70;87.00;;;;;;5131792;27;19915;-80
2022/10/22 08:46:53;;;;;;;;;;;20.80;87.20;;;;;;5118175;27;20412;-78
2022/10/22 08:49:21;;;;;;;;;;;20.70;87.30;;;;;;5131002;27;19923;-75
2022/10/22 08:51:48;;;;;;;;;;;20.70;87.30;;;;;;5110901;27;19912;-75
2022/10/22 08:54:26;;;;;;;;;;;20.60;87.40;;;;;;5093041;27;19916;-77
2022/10/22 08:57:01;;;;;;;;;;;20.60;87.30;;;;;;5118561;27;20408;-80
2022/10/22 08:59:39;;;;;;;;;;;20.60;87.50;;;;;;5098784;27;19973;-81
2022/10/22 09:02:13;;;;;;;;;;;20.60;87.50;;;;;;5121668;27;19920;-80
2022/10/22 09:04:42;;;;;;;;;;;20.50;87.50;;;;;;5091690;27;19912;-81
2022/10/22 09:07:08;;;;;;;;;;;20.60;87.60;;;;;;5112760;27;19912;-77
2022/10/22 09:09:36;;;;;;;;;;;20.50;87.50;;;;;;5112466;27;19919;-78
2022/10/22 09:12:03;;;;;;;;;;;20.50;87.60;;;;;;5103336;27;19985;-78
2022/10/22 09:14:30;;;;;;;;;;;20.50;87.70;;;;;;5130776;27;20028;-85
2022/10/22 09:17:05;;;;;;;;;;;20.50;87.60;;;;;;5129221;27;19915;-84
2022/10/22 09:19:50;;;;;;;;;;;20.50;87.60;;;;;;5115117;27;19922;-85
2022/10/22 09:22:16;;;;;;;;;;;20.40;87.60;;;;;;5115727;27;19915;-84
2022/10/22 09:24:47;;;;;;;;;;;20.40;87.60;;;;;;5125886;27;19933;-84
2022/10/22 09:27:15;;;;;;;;;;;20.40;87.60;;;;;;5097714;27;20317;-84
2022/10/22 09:29:41;;;;;;;;;;;20.40;87.60;;;;;;5106186;27;20373;-81
2022/10/22 09:32:08;;;;;;;;;;;20.40;87.60;;;;;;5110033;27;19915;-81
2022/10/22 09:34:34;;;;;;;;;;;20.40;87.50;;;;;;5112129;27;20334;-81
2022/10/22 09:37:07;;;;;;;;;;;20.40;87.70;;;;;;5130791;27;19911;-81
2022/10/22 09:39:38;;;;;;;;;;;20.30;87.70;;;;;;5105102;27;19973;-80
2022/10/22 09:42:05;;;;;;;;;;;20.30;87.70;;;;;;5101018;28;19916;-81
2022/10/22 09:44:36;;;;;;;;;;;20.30;88.00;;;;;;5091850;28;19926;-81
2022/10/22 09:47:06;;;;;;;;;;;20.30;88.00;;;;;;5130117;28;19919;-81
2022/10/22 09:49:33;;;;;;;;;;;20.30;87.80;;;;;;5111979;28;20262;-81
2022/10/22 09:52:00;;;;;;;;;;;20.30;87.90;;;;;;5107277;28;19928;-81
2022/10/22 09:54:33;;;;;;;;;;;20.30;87.80;;;;;;5100638;28;20251;-83
2022/10/22 09:57:03;;;;;;;;;;;20.30;87.90;;;;;;5129656;27;19995;-80
2022/10/22 09:59:31;;;;;;;;;;;20.30;88.00;;;;;;5130489;27;19920;-80
2022/10/22 10:02:01;;;;;;;;;;;20.20;88.20;;;;;;5137149;27;19908;-80
2022/10/22 10:04:28;;;;;;;;;;;20.20;88.10;;;;;;5137041;27;19922;-80
2022/10/22 10:06:58;;;;;;;;;;;20.30;88.20;;;;;;5118931;27;19966;-79
2022/10/22 10:09:26;;;;;;;;;;;20.30;88.00;;;;;;5137073;27;19927;-80
2022/10/22 10:12:01;;;;;;;;;;;20.30;88.10;;;;;;5137224;27;19912;-79
2022/10/22 10:14:34;;;;;;;;;;;20.30;88.10;;;;;;5136817;27;20392;-79
2022/10/22 10:17:14;;;;;;;;;;;20.30;88.00;;;;;;5118827;27;19952;-80
2022/10/22 10:19:45;;;;;;;;;;;20.40;88.00;;;;;;5118635;27;19907;-80
2022/10/22 10:22:41;;;;;;;;;;;20.30;87.90;;;;;;5136921;27;19964;-80
2022/10/22 10:25:14;;;;;;;;;;;20.30;87.90;;;;;;5098463;27;19915;-79
2022/10/22 10:27:42;;;;;;;;;;;20.30;87.80;;;;;;5136405;27;19915;-80
2022/10/22 10:30:16;;;;;;;;;;;20.30;87.60;;;;;;5117889;27;20442;-80
2022/10/22 10:32:47;;;;;;;;;;;20.30;87.50;;;;;;5104729;27;19920;-79
2022/10/22 10:35:16;;;;;;;;;;;20.30;87.50;;;;;;5123059;27;19958;-80
2022/10/22 10:37:46;;;;;;;;;;;20.30;87.60;;;;;;5119067;27;19912;-80
2022/10/22 10:40:22;;;;;;;;;;;20.30;87.50;;;;;;5114674;27;19912;-80
2022/10/22 10:42:58;;;;;;;;;;;20.30;87.50;;;;;;5108978;27;19919;-80
2022/10/22 10:45:24;;;;;;;;;;;20.30;87.40;;;;;;5136123;27;19912;-80
2022/10/22 10:48:09;;;;;;;;;;;20.20;87.10;;;;;;5129639;27;20273;-80
2022/10/22 10:50:44;;;;;;;;;;;20.20;87.30;;;;;;5116042;27;19911;-80
2022/10/22 10:53:26;;;;;;;;;;;20.30;87.20;;;;;;5129913;27;20377;-80
2022/10/22 10:56:01;;;;;;;;;;;20.20;87.30;;;;;;5135451;27;20345;-80
2022/10/22 10:58:34;;;;;;;;;;;20.20;87.30;;;;;;5125870;27;19970;-80
2022/10/22 11:01:03;;;;;;;;;;;20.20;87.30;;;;;;5112806;27;19912;-80
2022/10/22 11:03:47;;;;;;;;;;;20.20;87.20;;;;;;5123892;27;20262;-80
2022/10/22 11:06:16;;;;;;;;;;;20.20;87.10;;;;;;5136020;27;20282;-80
2022/10/22 11:23:41;;;;;;;;;;;20.20;87.10;;;;;;5120893;27;19926;-80
2022/10/22 11:26:13;;;;;;;;;;;20.20;87.20;;;;;;5114040;27;20356;-80
2022/10/22 11:28:40;;;;;;;;;;;20.20;87.40;;;;;;5099911;27;20422;-79
2022/10/22 11:31:14;;;;;;;;;;;20.20;87.20;;;;;;5094811;28;19908;-79
2022/10/22 11:33:44;;;;;;;;;;;20.20;87.20;;;;;;5120405;27;20026;-80
2022/10/22 11:36:11;;;;;;;;;;;20.20;87.10;;;;;;5135396;27;20010;-80
2022/10/22 11:38:37;;;;;;;;;;;20.20;87.30;;;;;;5116626;27;20018;-80
2022/10/22 11:41:11;;;;;;;;;;;20.20;87.50;;;;;;5135343;27;19942;-79
2022/10/22 11:43:53;;;;;;;;;;;20.10;87.40;;;;;;5117196;27;19915;-80
2022/10/22 11:46:19;;;;;;;;;;;20.10;87.40;;;;;;5135309;27;20343;-80
2022/10/22 11:49:00;;;;;;;;;;;20.10;87.30;;;;;;5134896;27;19915;-80
2022/10/22 11:51:29;;;;;;;;;;;20.10;87.50;;;;;;5135078;27;20369;-80
2022/10/22 11:53:56;;;;;;;;;;;20.00;87.40;;;;;;5135237;27;19908;-80
2022/10/22 11:56:26;;;;;;;;;;;20.10;87.60;;;;;;5116850;27;19923;-80
2022/10/22 11:58:53;;;;;;;;;;;20.10;87.60;;;;;;5116551;27;19907;-80
2022/10/22 12:01:27;;;;;;;;;;;20.10;87.70;;;;;;5116540;27;19952;-79
2022/10/22 12:03:57;;;;;;;;;;;20.10;87.50;;;;;;5135000;27;19911;-79
2022/10/22 12:06:24;;;;;;;;;;;20.10;87.70;;;;;;5134708;27;19935;-79
2022/10/22 12:08:54;;;;;;;;;;;20.10;87.70;;;;;;5116392;27;19976;-80
2022/10/22 12:11:20;;;;;;;;;;;20.10;87.80;;;;;;5134793;27;19916;-82
2022/10/22 12:14:05;;;;;;;;;;;20.10;87.70;;;;;;5116404;27;19907;-80
2022/10/22 12:16:32;;;;;;;;;;;20.10;87.70;;;;;;5134317;27;19926;-80
2022/10/22 12:19:17;;;;;;;;;;;20.00;87.80;;;;;;5134661;27;19973;-80
2022/10/22 12:21:47;;;;;;;;;;;20.00;87.90;;;;;;5134298;27;20285;-79
2022/10/22 12:24:15;;;;;;;;;;;20.00;87.90;;;;;;5116326;27;19924;-80
2022/10/22 12:26:42;;;;;;;;;;;20.00;87.80;;;;;;5116098;27;19953;-80
2022/10/22 12:29:13;;;;;;;;;;;20.00;87.80;;;;;;5116216;27;20007;-80
2022/10/22 12:31:40;;;;;;;;;;;20.00;87.90;;;;;;5104182;27;19918;-79
2022/10/22 12:34:06;;;;;;;;;;;20.00;87.80;;;;;;5110411;27;19907;-80
2022/10/22 12:36:34;;;;;;;;;;;20.00;87.90;;;;;;5134102;27;19929;-80
2022/10/22 12:39:08;;;;;;;;;;;20.00;88.00;;;;;;5134278;27;20307;-79
2022/10/22 12:41:35;;;;;;;;;;;20.00;88.10;;;;;;5081746;28;19908;-79
2022/10/22 12:44:02;;;;;;;;;;;20.00;88.20;;;;;;5110166;27;19918;-79
2022/10/22 12:46:29;;;;;;;;;;;20.00;88.20;;;;;;5116078;27;19907;-80
2022/10/22 12:48:58;;;;;;;;;;;20.00;88.00;;;;;;5115553;27;19919;-80
2022/10/22 12:51:24;;;;;;;;;;;20.00;88.10;;;;;;5115835;27;19951;-80
2022/10/22 12:53:52;;;;;;;;;;;20.00;88.10;;;;;;5128056;27;19968;-79
2022/10/22 12:56:47;;;;;;;;;;;20.00;88.30;;;;;;5116264;27;19912;-80
2022/10/22 12:59:34;;;;;;;;;;;19.90;88.40;;;;;;5124408;27;19908;-80
2022/10/22 13:02:00;;;;;;;;;;;20.00;88.50;;;;;;5133756;27;19908;-79
2022/10/22 13:04:36;;;;;;;;;;;20.00;88.60;;;;;;5133645;27;19929;-80
2022/10/22 13:07:04;;;;;;;;;;;20.00;88.50;;;;;;5115614;27;19953;-80
2022/10/22 13:09:57;;;;;;;;;;;20.00;88.60;;;;;;5133141;27;20357;-80
2022/10/22 13:12:27;;;;;;;;;;;20.00;88.40;;;;;;5131756;27;20018;-80
2022/10/22 13:14:53;;;;;;;;;;;20.00;88.50;;;;;;5098475;27;19907;-80
2022/10/22 13:17:22;;;;;;;;;;;20.00;88.50;;;;;;5133915;27;19911;-80
2022/10/22 13:20:00;;;;;;;;;;;20.00;88.50;;;;;;5133515;27;19911;-80
2022/10/22 13:22:40;;;;;;;;;;;20.00;88.50;;;;;;5133283;27;19915;-79
2022/10/22 13:25:12;;;;;;;;;;;20.00;88.60;;;;;;5127209;27;19990;-79
2022/10/22 13:27:58;;;;;;;;;;;20.00;88.60;;;;;;5129026;27;19954;-80
2022/10/22 13:30:28;;;;;;;;;;;20.00;88.70;;;;;;5133094;27;19947;-79
2022/10/22 13:33:13;;;;;;;;;;;20.00;88.70;;;;;;5132787;27;19968;-80
2022/10/22 13:35:39;;;;;;;;;;;20.00;88.80;;;;;;5098444;27;19912;-79
2022/10/22 13:38:12;;;;;;;;;;;20.00;88.60;;;;;;5119447;27;20002;-79
2022/10/22 13:40:38;;;;;;;;;;;20.00;88.70;;;;;;5115003;27;19990;-80
2022/10/22 13:43:05;;;;;;;;;;;20.00;88.60;;;;;;5133309;27;19908;-79
2022/10/22 13:45:32;;;;;;;;;;;19.90;88.80;;;;;;5133111;27;19917;-80
2022/10/22 13:47:58;;;;;;;;;;;20.00;88.60;;;;;;5133288;28;19911;-79
2022/10/22 13:50:25;;;;;;;;;;;20.00;88.80;;;;;;5133110;28;19911;-79
2022/10/22 13:52:51;;;;;;;;;;;20.00;88.80;;;;;;5133100;28;20296;-79
2022/10/22 13:55:19;;;;;;;;;;;20.00;89.00;;;;;;5133347;28;20009;-79
2022/10/22 13:57:46;;;;;;;;;;;19.90;89.20;;;;;;5115109;28;19908;-79
2022/10/22 14:00:16;;;;;;;;;;;20.00;89.10;;;;;;5111013;28;19912;-80
2022/10/22 14:02:43;;;;;;;;;;;19.90;89.00;;;;;;5046790;28;20257;-80
2022/10/22 14:05:10;;;;;;;;;;;19.90;89.00;;;;;;5133017;28;20331;-80
2022/10/22 14:07:37;;;;;;;;;;;19.90;89.00;;;;;;5114669;28;19915;-80
2022/10/22 14:10:14;;;;;;;;;;;19.90;89.00;;;;;;5114781;27;19962;-78
2022/10/22 14:12:41;;;;;;;;;;;19.90;88.90;;;;;;5102063;28;19915;-80
2022/10/22 14:15:08;;;;;;;;;;;19.90;89.00;;;;;;5133048;28;19951;-79
2022/10/22 14:17:35;;;;;;;;;;;19.90;89.30;;;;;;5132942;28;19933;-80
2022/10/22 14:20:01;;;;;;;;;;;19.90;89.80;;;;;;5132952;28;20408;-79
2022/10/22 14:22:28;;;;;;;;;;;19.80;89.90;;;;;;5132912;27;19915;-79
2022/10/22 14:24:55;;;;;;;;;;;19.80;89.90;;;;;;5132955;28;19918;-79
2022/10/22 14:27:21;;;;;;;;;;;19.80;90.20;;;;;;5132928;28;20371;-80
2022/10/22 14:29:48;;;;;;;;;;;19.70;90.40;;;;;;5132587;28;19960;-80
2022/10/22 14:32:20;;;;;;;;;;;19.70;90.50;;;;;;5133113;28;19908;-79
2022/10/22 14:34:47;;;;;;;;;;;19.70;90.50;;;;;;5132947;28;19965;-80
2022/10/22 14:37:18;;;;;;;;;;;19.70;90.60;;;;;;5114371;28;19907;-80
2022/10/22 14:39:51;;;;;;;;;;;19.70;90.40;;;;;;5133147;28;20246;-80
2022/10/22 14:42:18;;;;;;;;;;;19.70;90.10;;;;;;5115515;28;19908;-80